Time;durP1;ratioP1;P1;durP2;ratioP2;P2;SDS_P1;SDS_P2;PMS_P1;PMS_P2;Temp;Humidity;BMP_temperature;BMP_pressure;BME280_temperature;BME280_humidity;BME280_pressure;Samples;Min_cycle;Max_cycle;Signal;HPM_P1;HPM_P2
2021/10/11 00:01:01;;;;;;;14.35;4.70;;;11.40;62.80;;;;;;5046979;28;19912;-78
2021/10/11 00:03:28;;;;;;;14.13;5.25;;;11.40;63.80;;;;;;5047833;28;20036;-77
2021/10/11 00:05:53;;;;;;;16.00;6.00;;;11.40;62.90;;;;;;5046204;28;20036;-79
2021/10/11 00:08:19;;;;;;;;;;;11.40;62.80;;;;;;5047856;28;20025;-79
2021/10/11 00:10:44;;;;;;;12.32;5.40;;;11.40;62.60;;;;;;5046524;28;20019;-80
2021/10/11 00:13:10;;;;;;;;;;;11.40;62.60;;;;;;5047728;28;20060;-78
2021/10/11 00:15:36;;;;;;;11.65;4.68;;;11.40;62.50;;;;;;5047740;28;20003;-79
2021/10/11 00:18:01;;;;;;;;;;;11.40;62.50;;;;;;5047622;28;20444;-80
2021/10/11 00:20:27;;;;;;;11.25;5.03;;;11.50;62.90;;;;;;5046509;28;19911;-78
2021/10/11 00:22:52;;;;;;;;;;;11.50;62.70;;;;;;5048475;28;20044;-81
2021/10/11 00:25:18;;;;;;;7.65;3.83;;;11.50;63.40;;;;;;5047601;28;19999;-81
2021/10/11 00:27:44;;;;;;;;;;;11.50;62.70;;;;;;5047328;28;20321;-80
2021/10/11 00:30:12;;;;;;;10.30;4.70;;;11.50;62.80;;;;;;5047421;28;19947;-79
2021/10/11 00:32:38;;;;;;;12.88;4.45;;;11.50;62.80;;;;;;5046837;28;20040;-79
2021/10/11 00:35:04;;;;;;;8.70;3.50;;;11.50;62.70;;;;;;5045793;28;20478;-79
2021/10/11 00:37:30;;;;;;;7.47;3.47;;;11.50;62.90;;;;;;5046953;28;20057;-79
2021/10/11 00:39:56;;;;;;;;;;;11.60;62.90;;;;;;5047630;28;20064;-78
2021/10/11 00:42:22;;;;;;;14.88;4.03;;;11.50;62.80;;;;;;5045821;28;19916;-79
2021/10/11 00:44:47;;;;;;;15.95;4.47;;;11.60;62.90;;;;;;5046076;28;20034;-79
2021/10/11 00:47:13;;;;;;;;;;;11.50;63.00;;;;;;5047581;28;20509;-80
2021/10/11 00:49:39;;;;;;;12.38;4.03;;;11.50;62.80;;;;;;5046061;28;19909;-79
2021/10/11 00:52:04;;;;;;;;;;;11.60;63.00;;;;;;5047318;28;20063;-80
2021/10/11 00:54:31;;;;;;;10.15;3.78;;;11.50;62.80;;;;;;5046501;28;19947;-79
2021/10/11 00:56:57;;;;;;;12.70;3.95;;;11.60;63.00;;;;;;5046975;28;20540;-79
2021/10/11 00:59:23;;;;;;;;;;;11.60;62.90;;;;;;5045493;28;20060;-78
2021/10/11 01:01:48;;;;;;;11.65;3.58;;;11.50;62.80;;;;;;5045440;28;19915;-79
2021/10/11 01:04:14;;;;;;;;;;;11.60;63.00;;;;;;5047321;28;20033;-79
2021/10/11 01:06:42;;;;;;;7.88;3.83;;;11.60;62.80;;;;;;5046298;28;19991;-78
2021/10/11 01:09:09;;;;;;;9.25;3.75;;;11.60;62.90;;;;;;5045634;28;20033;-78
2021/10/11 01:11:36;;;;;;;8.63;3.95;;;11.60;62.90;;;;;;5045279;28;20044;-79
2021/10/11 01:14:03;;;;;;;14.98;4.13;;;11.60;63.00;;;;;;5044953;28;20037;-79
2021/10/11 01:16:29;;;;;;;11.65;4.15;;;11.60;62.70;;;;;;5045001;28;20108;-79
2021/10/11 01:18:55;;;;;;;;;;;11.70;62.80;;;;;;5045731;28;20124;-79
2021/10/11 01:21:21;;;;;;;10.23;3.83;;;11.60;62.70;;;;;;5046262;28;19915;-79
2021/10/11 01:23:47;;;;;;;;;;;11.70;62.80;;;;;;5045780;28;20039;-79
2021/10/11 01:26:12;;;;;;;9.02;3.65;;;11.70;62.70;;;;;;5046459;28;19998;-80
2021/10/11 01:28:38;;;;;;;;;;;11.70;62.60;;;;;;5046593;28;20127;-79
2021/10/11 01:31:04;;;;;;;7.32;3.72;;;11.70;62.60;;;;;;5046109;28;19909;-79
2021/10/11 01:33:29;;;;;;;;;;;11.70;62.60;;;;;;5045774;28;20057;-79
2021/10/11 01:35:55;;;;;;;8.95;4.20;;;11.70;62.70;;;;;;5046428;28;20403;-78
2021/10/11 01:38:21;;;;;;;6.68;2.92;;;11.70;62.30;;;;;;5046071;28;20102;-79
2021/10/11 01:40:46;;;;;;;;;;;11.70;62.30;;;;;;5046966;28;20381;-79
2021/10/11 01:43:12;;;;;;;6.55;3.10;;;11.70;62.30;;;;;;5046178;28;19982;-79
2021/10/11 01:45:39;;;;;;;;;;;11.70;62.20;;;;;;5046509;28;20417;-80
2021/10/11 01:48:05;;;;;;;6.18;3.13;;;11.70;62.30;;;;;;5045927;28;19995;-79
2021/10/11 01:50:33;;;;;;;8.48;3.47;;;11.80;62.40;;;;;;5045331;28;20083;-79
2021/10/11 01:52:59;;;;;;;7.68;3.30;;;11.80;62.40;;;;;;5045543;28;20499;-79
2021/10/11 01:55:25;;;;;;;9.18;3.28;;;11.80;62.50;;;;;;5046259;28;20092;-79
2021/10/11 01:57:51;;;;;;;;;;;11.80;62.60;;;;;;5046269;28;20570;-78
2021/10/11 02:00:17;;;;;;;6.60;3.10;;;11.80;62.90;;;;;;5045851;28;19916;-79
2021/10/11 02:02:43;;;;;;;7.85;4.05;;;11.80;63.00;;;;;;5045843;28;20025;-79
2021/10/11 02:05:09;;;;;;;;;;;11.80;63.50;;;;;;5048044;28;20086;-79
2021/10/11 02:07:34;;;;;;;14.55;3.80;;;11.70;63.80;;;;;;5045906;28;19913;-79
2021/10/11 02:10:00;;;;;;;7.85;3.58;;;11.70;63.80;;;;;;5045864;28;20553;-79
2021/10/11 02:12:26;;;;;;;;;;;11.70;63.90;;;;;;5046119;28;20049;-79
2021/10/11 02:14:51;;;;;;;6.43;3.00;;;11.70;63.80;;;;;;5048520;28;19909;-78
2021/10/11 02:17:17;;;;;;;;;;;11.70;63.80;;;;;;5050211;28;20645;-78
2021/10/11 02:19:43;;;;;;;8.38;3.53;;;11.70;63.70;;;;;;5049687;28;20436;-79
2021/10/11 02:22:09;;;;;;;;;;;11.70;63.70;;;;;;5049514;28;20379;-78
2021/10/11 02:24:34;;;;;;;7.45;3.00;;;11.70;63.80;;;;;;5048551;28;19913;-78
2021/10/11 02:27:00;;;;;;;;;;;11.70;63.70;;;;;;5048660;28;20069;-78
2021/10/11 02:29:27;;;;;;;7.38;3.58;;;11.70;63.90;;;;;;5049447;28;20379;-78
2021/10/11 02:31:54;;;;;;;9.90;3.83;;;11.70;65.60;;;;;;5049749;28;20526;-78
2021/10/11 02:34:19;;;;;;;5.15;2.88;;;11.70;66.10;;;;;;5049207;28;20028;-78
2021/10/11 02:36:45;;;;;;;;;;;11.60;66.60;;;;;;5049811;28;20033;-78
2021/10/11 02:39:10;;;;;;;5.07;2.95;;;11.60;68.70;;;;;;5050018;28;19912;-79
2021/10/11 02:41:36;;;;;;;;;;;11.50;68.20;;;;;;5049380;28;20048;-79
2021/10/11 02:44:02;;;;;;;6.93;3.33;;;11.50;69.10;;;;;;5049392;28;19915;-78
2021/10/11 02:46:27;;;;;;;;;;;11.50;68.70;;;;;;5049567;28;20029;-78
2021/10/11 02:48:53;;;;;;;8.23;3.33;;;11.40;69.80;;;;;;5049149;28;19904;-78
2021/10/11 02:51:18;;;;;;;9.40;3.83;;;11.40;69.40;;;;;;5048100;28;20075;-79
2021/10/11 02:53:49;;;;;;;;;;;11.30;70.40;;;;;;5049153;28;20064;-79
2021/10/11 02:56:16;;;;;;;12.10;3.65;;;11.30;70.10;;;;;;5048780;28;19966;-79
2021/10/11 02:58:41;;;;;;;10.02;3.65;;;11.30;70.70;;;;;;5048026;28;20124;-79
2021/10/11 03:01:07;;;;;;;;;;;11.30;70.80;;;;;;5049156;28;20104;-78
2021/10/11 03:03:32;;;;;;;10.27;3.53;;;11.30;71.40;;;;;;5048797;28;20326;-79
2021/10/11 03:05:58;;;;;;;9.88;3.75;;;11.20;69.80;;;;;;5049210;28;20028;-79
2021/10/11 03:08:23;;;;;;;;;;;11.20;71.20;;;;;;5049450;28;20029;-78
2021/10/11 03:10:49;;;;;;;9.80;3.97;;;11.20;72.60;;;;;;5047759;28;19927;-79
2021/10/11 03:13:15;;;;;;;6.65;3.15;;;11.20;72.30;;;;;;5048274;28;20037;-78
2021/10/11 03:15:40;;;;;;;;;;;11.10;72.60;;;;;;5047680;28;20794;-79
2021/10/11 03:18:06;;;;;;;7.97;3.08;;;11.10;73.20;;;;;;5048309;28;20012;-79
2021/10/11 03:20:31;;;;;;;7.10;2.78;;;11.10;73.60;;;;;;5048684;28;20714;-78
2021/10/11 03:22:57;;;;;;;;;;;11.00;73.50;;;;;;5048819;28;20037;-77
2021/10/11 03:25:23;;;;;;;7.03;2.85;;;11.00;74.00;;;;;;5048717;28;19908;-78
2021/10/11 03:27:48;;;;;;;;;;;11.00;74.30;;;;;;5048818;28;20036;-79
2021/10/11 03:30:14;;;;;;;9.88;2.83;;;10.90;74.60;;;;;;5047079;28;19916;-78
2021/10/11 03:32:39;;;;;;;5.95;2.75;;;10.90;75.10;;;;;;5048558;28;20492;-78
2021/10/11 03:35:05;;;;;;;6.07;2.35;;;10.90;74.70;;;;;;5048229;28;20473;-78
2021/10/11 03:37:31;;;;;;;;;;;10.90;74.20;;;;;;5048960;28;20088;-78
2021/10/11 03:39:56;;;;;;;10.48;4.32;;;10.90;76.00;;;;;;5048372;28;19909;-82
2021/10/11 03:42:22;;;;;;;;;;;10.90;75.80;;;;;;5047997;28;20036;-81
2021/10/11 03:44:47;;;;;;;7.43;3.28;;;10.90;75.30;;;;;;5047058;28;19909;-79
2021/10/11 03:47:13;;;;;;;;;;;10.80;75.40;;;;;;5047123;28;20535;-80
2021/10/11 03:49:38;;;;;;;9.90;3.10;;;10.80;75.50;;;;;;5048352;28;19915;-80
2021/10/11 03:52:04;;;;;;;7.22;2.80;;;10.80;76.00;;;;;;5046180;28;20043;-80
2021/10/11 03:54:30;;;;;;;;;;;10.80;75.00;;;;;;5048184;28;20060;-80
2021/10/11 03:56:55;;;;;;;6.93;3.40;;;10.80;75.30;;;;;;5046363;28;19952;-80
2021/10/11 03:59:21;;;;;;;7.47;2.42;;;10.80;76.20;;;;;;5048173;28;20062;-81
2021/10/11 04:01:47;;;;;;;;;;;10.80;76.00;;;;;;5048210;28;20109;-81
2021/10/11 04:04:12;;;;;;;8.32;2.95;;;10.80;76.40;;;;;;5047516;28;19916;-80
2021/10/11 04:06:38;;;;;;;5.00;2.67;;;10.70;76.50;;;;;;5046385;28;20538;-78
2021/10/11 04:09:04;;;;;;;;;;;10.70;76.50;;;;;;5047437;28;20036;-79
2021/10/11 04:11:31;;;;;;;13.35;3.38;;;10.70;77.40;;;;;;5047609;28;19909;-79
2021/10/11 04:13:57;;;;;;;9.60;4.05;;;10.70;77.90;;;;;;5046548;28;20032;-79
2021/10/11 04:16:24;;;;;;;7.00;3.05;;;10.70;77.70;;;;;;5046276;28;20032;-79
2021/10/11 04:18:49;;;;;;;7.38;2.97;;;10.70;78.20;;;;;;5046914;28;20088;-80
2021/10/11 04:21:15;;;;;;;;;;;10.70;77.20;;;;;;5047213;28;20417;-77
2021/10/11 04:23:41;;;;;;;6.88;3.17;;;10.70;79.30;;;;;;5047235;28;19947;-81
2021/10/11 04:26:07;;;;;;;;;;;10.70;78.20;;;;;;5046076;28;20025;-81
2021/10/11 04:28:32;;;;;;;11.02;2.85;;;10.70;76.60;;;;;;5047197;28;19912;-80
2021/10/11 04:30:58;;;;;;;6.93;3.00;;;10.70;76.10;;;;;;5046198;28;20035;-80
2021/10/11 04:33:24;;;;;;;;;;;10.60;76.00;;;;;;5047922;28;20021;-81
2021/10/11 04:35:50;;;;;;;14.05;3.47;;;10.60;76.40;;;;;;5046629;28;19915;-82
2021/10/11 04:38:16;;;;;;;;;;;10.60;76.70;;;;;;5046340;28;20048;-81
2021/10/11 04:40:42;;;;;;;6.00;3.38;;;10.60;78.20;;;;;;5046916;28;19985;-81
2021/10/11 04:43:08;;;;;;;15.77;3.83;;;10.50;78.40;;;;;;5045775;28;20024;-81
2021/10/11 04:45:34;;;;;;;;;;;10.40;78.80;;;;;;5046308;28;20044;-82
2021/10/11 04:48:01;;;;;;;13.48;3.65;;;10.40;78.80;;;;;;5046993;28;19909;-80
2021/10/11 04:50:29;;;;;;;9.77;3.55;;;10.30;79.10;;;;;;5046831;28;20032;-80
2021/10/11 04:52:55;;;;;;;6.93;3.20;;;10.30;80.70;;;;;;5047125;28;20504;-79
2021/10/11 04:55:21;;;;;;;10.82;3.10;;;10.20;81.70;;;;;;5046916;28;20476;-79
2021/10/11 04:57:47;;;;;;;;;;;10.10;80.80;;;;;;5047144;28;20120;-79
2021/10/11 05:00:13;;;;;;;7.97;3.40;;;10.10;81.20;;;;;;5046645;28;20420;-79
2021/10/11 05:02:40;;;;;;;9.45;3.55;;;10.10;81.00;;;;;;5045575;28;20501;-80
2021/10/11 05:05:06;;;;;;;8.38;3.47;;;10.10;81.40;;;;;;5046474;28;20064;-79
2021/10/11 05:07:32;;;;;;;10.50;3.42;;;10.10;81.30;;;;;;5047050;28;20086;-79
2021/10/11 05:09:58;;;;;;;14.07;4.00;;;10.10;81.70;;;;;;5044568;28;20126;-79
2021/10/11 05:12:23;;;;;;;;;;;10.10;81.40;;;;;;5045844;28;20115;-79
2021/10/11 05:14:49;;;;;;;8.20;3.88;;;10.10;81.70;;;;;;5046561;28;19909;-79
2021/10/11 05:17:15;;;;;;;8.02;3.88;;;10.10;82.10;;;;;;5045166;28;20080;-79
2021/10/11 05:19:40;;;;;;;10.68;3.72;;;10.10;82.50;;;;;;5045678;28;20560;-79
2021/10/11 05:22:06;;;;;;;;;;;10.10;82.50;;;;;;5046796;28;20082;-79
2021/10/11 05:24:32;;;;;;;7.65;3.25;;;10.20;82.60;;;;;;5046658;28;19912;-79
2021/10/11 05:26:58;;;;;;;;;;;10.30;83.10;;;;;;5045067;28;20099;-78
2021/10/11 05:29:23;;;;;;;14.73;4.05;;;10.30;83.10;;;;;;5046583;28;19960;-80
2021/10/11 05:31:51;;;;;;;16.15;5.63;;;10.40;83.00;;;;;;5046349;28;20052;-79
2021/10/11 05:34:17;;;;;;;9.90;4.03;;;10.40;82.00;;;;;;5046258;28;20500;-79
2021/10/11 05:36:43;;;;;;;;;;;10.50;80.30;;;;;;5045521;28;20478;-79
2021/10/11 05:39:09;;;;;;;9.27;4.68;;;10.50;79.70;;;;;;5045604;28;19944;-80
2021/10/11 05:41:34;;;;;;;;;;;10.60;80.00;;;;;;5046262;28;20063;-79
2021/10/11 05:44:00;;;;;;;11.27;4.72;;;10.60;80.50;;;;;;5045997;28;19946;-79
2021/10/11 05:46:25;;;;;;;;;;;10.60;79.90;;;;;;5045611;28;20025;-79
2021/10/11 05:48:51;;;;;;;13.65;6.28;;;10.60;79.50;;;;;;5047233;28;19909;-79
2021/10/11 05:51:17;;;;;;;;;;;10.70;80.00;;;;;;5050009;28;20032;-79
2021/10/11 05:53:42;;;;;;;17.02;6.22;;;10.70;80.20;;;;;;5048454;28;19920;-80
2021/10/11 05:56:08;;;;;;;11.55;5.18;;;10.70;80.30;;;;;;5048699;28;20028;-79
2021/10/11 05:58:34;;;;;;;13.13;6.50;;;10.80;80.60;;;;;;5048800;28;20445;-79
2021/10/11 06:00:59;;;;;;;12.32;7.05;;;10.80;80.80;;;;;;5049107;28;20400;-78
2021/10/11 06:03:25;;;;;;;;;;;10.80;81.50;;;;;;5050550;28;20069;-78
2021/10/11 06:05:52;;;;;;;18.95;8.68;;;10.90;81.80;;;;;;5048172;28;19908;-79
2021/10/11 06:08:18;;;;;;;16.67;8.95;;;10.90;81.00;;;;;;5048630;28;20028;-80
2021/10/11 06:10:44;;;;;;;;;;;11.00;81.60;;;;;;5049317;28;20060;-79
2021/10/11 06:13:10;;;;;;;15.20;7.35;;;11.00;80.50;;;;;;5049008;28;19967;-80
2021/10/11 06:15:35;;;;;;;;;;;11.10;80.60;;;;;;5049427;28;20037;-78
2021/10/11 06:18:01;;;;;;;18.70;7.03;;;11.10;79.70;;;;;;5049515;28;20297;-79
2021/10/11 06:20:27;;;;;;;11.65;6.68;;;11.20;79.70;;;;;;5049405;28;20029;-80
2021/10/11 06:22:52;;;;;;;15.57;6.55;;;11.30;77.90;;;;;;5050136;28;20116;-80
2021/10/11 06:25:18;;;;;;;;;;;11.30;77.70;;;;;;5048585;28;20448;-80
2021/10/11 06:27:44;;;;;;;18.38;6.38;;;11.40;80.00;;;;;;5048710;28;19916;-82
2021/10/11 06:30:09;;;;;;;;;;;11.40;80.50;;;;;;5049964;28;20071;-81
2021/10/11 06:32:35;;;;;;;11.70;5.10;;;11.40;81.20;;;;;;5048563;28;19952;-80
2021/10/11 06:35:00;;;;;;;;;;;11.40;81.30;;;;;;5049668;28;20112;-80
2021/10/11 06:37:26;;;;;;;11.05;4.10;;;11.40;79.50;;;;;;5048588;28;19916;-79
2021/10/11 06:39:52;;;;;;;;;;;11.40;80.00;;;;;;5050945;28;20033;-80
2021/10/11 06:42:17;;;;;;;19.48;10.88;;;11.50;79.70;;;;;;5049210;28;19970;-80
2021/10/11 06:44:43;;;;;;;;;;;11.50;79.20;;;;;;5050055;28;20025;-80
2021/10/11 06:47:09;;;;;;;8.85;5.18;;;11.50;79.40;;;;;;5049291;28;19905;-80
2021/10/11 06:49:34;;;;;;;;;;;11.60;79.20;;;;;;5049741;28;20082;-79
2021/10/11 06:52:00;;;;;;;8.30;4.28;;;11.70;78.80;;;;;;5049105;28;19905;-80
2021/10/11 06:54:26;;;;;;;;;;;11.70;78.60;;;;;;5048868;28;20037;-80
2021/10/11 06:56:52;;;;;;;8.70;3.70;;;11.90;78.40;;;;;;5049011;28;19913;-79
2021/10/11 06:59:18;;;;;;;9.55;4.18;;;12.00;77.90;;;;;;5047027;28;20078;-80
2021/10/11 07:01:44;;;;;;;;;;;12.10;78.10;;;;;;5049213;28;20497;-78
2021/10/11 07:04:13;;;;;;;10.57;4.82;;;12.20;79.90;;;;;;5048146;28;19920;-77
2021/10/11 07:06:41;;;;;;;10.70;5.10;;;12.40;79.20;;;;;;5047788;28;20029;-79
2021/10/11 07:09:06;;;;;;;9.93;5.55;;;12.50;80.00;;;;;;5047787;28;20032;-79
2021/10/11 07:11:32;;;;;;;;;;;12.70;81.60;;;;;;5048540;28;20601;-79
2021/10/11 07:13:57;;;;;;;13.75;5.97;;;12.90;80.30;;;;;;5047558;28;20015;-80
2021/10/11 07:16:23;;;;;;;;;;;13.10;78.00;;;;;;5049166;28;20469;-80
2021/10/11 07:18:48;;;;;;;14.77;5.68;;;13.20;73.80;;;;;;5047135;28;19921;-79
2021/10/11 07:21:14;;;;;;;;;;;13.30;72.80;;;;;;5048854;28;20063;-81
2021/10/11 07:23:39;;;;;;;8.70;4.75;;;13.40;70.20;;;;;;5048628;28;19920;-79
2021/10/11 07:26:06;;;;;;;;;;;13.50;68.80;;;;;;5048645;28;20090;-79
2021/10/11 07:28:32;;;;;;;9.60;4.50;;;13.60;66.60;;;;;;5048747;28;19909;-79
2021/10/11 07:30:58;;;;;;;8.65;4.30;;;13.70;67.00;;;;;;5048594;28;20255;-80
2021/10/11 07:33:24;;;;;;;14.98;4.85;;;13.80;67.40;;;;;;5048071;28;20489;-79
2021/10/11 07:35:50;;;;;;;;;;;13.90;66.40;;;;;;5048176;28;20096;-79
2021/10/11 07:38:17;;;;;;;7.72;4.18;;;13.90;65.50;;;;;;5047466;28;20424;-79
2021/10/11 07:40:42;;;;;;;11.05;4.70;;;14.00;65.20;;;;;;5048368;28;20079;-78
2021/10/11 07:43:08;;;;;;;;;;;14.10;64.10;;;;;;5048513;28;20029;-78
2021/10/11 07:45:34;;;;;;;9.00;4.95;;;14.20;63.00;;;;;;5048416;28;20274;-77
2021/10/11 07:47:59;;;;;;;;;;;14.40;62.40;;;;;;5048338;28;20025;-78
2021/10/11 07:50:25;;;;;;;12.70;5.88;;;14.50;61.80;;;;;;5046931;28;20270;-78
2021/10/11 07:52:50;;;;;;;;;;;14.60;60.90;;;;;;5048536;28;20159;-77
2021/10/11 07:55:16;;;;;;;14.07;5.13;;;14.80;60.10;;;;;;5045870;28;19948;-79
2021/10/11 07:57:42;;;;;;;;;;;14.90;60.50;;;;;;5048460;28;20049;-78
2021/10/11 08:00:12;;;;;;;8.50;4.43;;;15.00;59.00;;;;;;5048076;28;19905;-78
2021/10/11 08:02:37;;;;;;;9.73;4.85;;;15.10;59.60;;;;;;5046744;28;20029;-76
2021/10/11 08:05:03;;;;;;;;;;;15.20;59.30;;;;;;5048375;28;20024;-77
2021/10/11 08:07:29;;;;;;;13.32;4.90;;;15.30;57.60;;;;;;5047209;28;20536;-78
2021/10/11 08:09:54;;;;;;;;;;;15.40;57.80;;;;;;5047660;28;20123;-79
2021/10/11 08:12:20;;;;;;;9.82;4.43;;;15.40;57.50;;;;;;5046355;28;19953;-78
2021/10/11 08:14:46;;;;;;;15.63;4.60;;;15.50;58.20;;;;;;5046151;28;20064;-79
2021/10/11 08:17:12;;;;;;;;;;;15.50;58.10;;;;;;5046964;28;20083;-80
2021/10/11 08:19:38;;;;;;;12.13;4.15;;;15.60;58.30;;;;;;5046335;28;19919;-80
2021/10/11 08:22:04;;;;;;;;;;;15.70;57.10;;;;;;5046322;28;20024;-80
2021/10/11 08:24:29;;;;;;;11.55;4.20;;;15.80;56.70;;;;;;5046895;28;19908;-79
2021/10/11 08:26:55;;;;;;;10.13;4.28;;;15.90;56.80;;;;;;5045541;28;20043;-79
2021/10/11 08:29:21;;;;;;;9.15;4.10;;;16.00;56.60;;;;;;5047009;28;20029;-79
2021/10/11 08:31:46;;;;;;;12.68;4.07;;;16.10;56.50;;;;;;5045807;28;20489;-80
2021/10/11 08:34:12;;;;;;;;;;;16.20;56.30;;;;;;5047137;28;20029;-80
2021/10/11 08:36:38;;;;;;;11.38;3.97;;;16.30;55.70;;;;;;5047161;28;20417;-78
2021/10/11 08:39:04;;;;;;;5.93;3.47;;;16.20;55.20;;;;;;5045756;28;20404;-80
2021/10/11 08:41:31;;;;;;;8.60;4.13;;;16.20;55.00;;;;;;5047041;28;20063;-79
2021/10/11 08:43:56;;;;;;;11.40;5.28;;;16.30;55.30;;;;;;5046637;28;20037;-80
2021/10/11 08:46:23;;;;;;;12.05;5.82;;;16.40;56.20;;;;;;5047076;28;20474;-78
2021/10/11 08:48:49;;;;;;;15.02;4.55;;;16.50;56.70;;;;;;5046923;28;20021;-79
2021/10/11 08:51:14;;;;;;;12.00;5.43;;;16.50;56.50;;;;;;5045643;28;20195;-80
2021/10/11 08:53:40;;;;;;;;;;;16.50;56.40;;;;;;5044129;28;20098;-80
2021/10/11 08:56:06;;;;;;;15.00;4.88;;;16.50;56.10;;;;;;5045774;28;19912;-80
2021/10/11 08:58:42;;;;;;;12.98;5.25;;;16.40;56.90;;;;;;5046278;28;20057;-79
2021/10/11 09:01:07;;;;;;;13.93;6.70;;;16.40;57.10;;;;;;5046420;28;20037;-79
2021/10/11 09:03:33;;;;;;;10.65;5.13;;;16.50;57.30;;;;;;5046440;28;20040;-78
2021/10/11 09:06:06;;;;;;;;;;;16.40;57.30;;;;;;5046021;28;20032;-80
2021/10/11 09:08:33;;;;;;;12.05;5.45;;;16.40;57.50;;;;;;5045593;28;19909;-79
2021/10/11 09:11:04;;;;;;;10.27;4.80;;;16.30;57.10;;;;;;5044674;28;20440;-78
2021/10/11 09:13:44;;;;;;;12.57;5.78;;;16.20;57.10;;;;;;5044827;28;20025;-78
2021/10/11 09:16:12;;;;;;;16.13;4.70;;;16.20;57.50;;;;;;5044628;28;20032;-78
2021/10/11 09:18:40;;;;;;;14.35;5.15;;;16.20;56.80;;;;;;5046178;28;20071;-80
2021/10/11 09:21:07;;;;;;;9.18;4.38;;;16.10;57.50;;;;;;5046304;28;20018;-79
2021/10/11 09:23:33;;;;;;;12.98;4.28;;;16.10;57.40;;;;;;5045829;28;20035;-78
2021/10/11 09:26:00;;;;;;;11.80;4.63;;;16.10;57.10;;;;;;5046363;28;20105;-79
2021/10/11 09:28:27;;;;;;;10.35;4.75;;;16.00;56.10;;;;;;5044808;28;20571;-78
2021/10/11 09:30:54;;;;;;;11.70;4.70;;;15.90;56.30;;;;;;5044698;28;20521;-79
2021/10/11 09:33:22;;;;;;;11.65;4.32;;;15.80;56.70;;;;;;5046123;28;20029;-79
2021/10/11 09:35:53;;;;;;;6.80;4.25;;;15.70;57.40;;;;;;5046270;28;20560;-78
2021/10/11 09:38:27;;;;;;;9.25;4.40;;;15.70;57.70;;;;;;5044147;28;20039;-78
2021/10/11 09:40:56;;;;;;;10.75;4.63;;;15.60;58.40;;;;;;5045301;28;20025;-78
2021/10/11 09:43:25;;;;;;;11.52;4.38;;;15.60;58.60;;;;;;5046071;28;20086;-80
2021/10/11 09:45:52;;;;;;;8.77;4.60;;;15.50;58.70;;;;;;5046105;28;20082;-81
2021/10/11 09:48:18;;;;;;;10.48;4.07;;;15.50;59.80;;;;;;5044918;28;20037;-81
2021/10/11 09:50:45;;;;;;;9.10;4.50;;;15.40;61.20;;;;;;5044966;28;20036;-81
2021/10/11 09:53:15;;;;;;;16.00;4.38;;;15.30;61.60;;;;;;5044437;28;20063;-79
2021/10/11 09:55:41;;;;;;;10.93;4.30;;;15.30;63.00;;;;;;5045929;28;20494;-79
2021/10/11 09:58:13;;;;;;;;;;;15.30;63.70;;;;;;5045253;28;20033;-79
2021/10/11 10:00:40;;;;;;;8.70;3.75;;;15.30;65.80;;;;;;5044793;28;20572;-80
2021/10/11 10:03:07;;;;;;;8.02;3.85;;;15.30;65.50;;;;;;5046234;28;20033;-79
2021/10/11 10:05:37;;;;;;;13.57;4.20;;;15.30;66.20;;;;;;5046003;28;20525;-79
2021/10/11 10:08:07;;;;;;;13.80;4.93;;;15.40;67.50;;;;;;5045698;28;20033;-79
2021/10/11 10:10:35;;;;;;;9.85;4.85;;;15.40;67.60;;;;;;5046199;28;20036;-78
2021/10/11 10:13:01;;;;;;;15.48;4.63;;;15.50;68.20;;;;;;5046083;28;20044;-79
2021/10/11 10:15:37;;;;;;;10.65;4.57;;;15.60;68.70;;;;;;5045761;28;20059;-79
2021/10/11 10:18:06;;;;;;;8.52;4.00;;;15.60;69.90;;;;;;5044576;28;20037;-79
2021/10/11 10:20:33;;;;;;;13.48;4.63;;;15.60;69.90;;;;;;5045166;28;20044;-79
2021/10/11 10:23:00;;;;;;;9.38;4.32;;;15.60;71.00;;;;;;5045248;28;20068;-80
2021/10/11 10:25:26;;;;;;;8.07;4.78;;;15.60;70.20;;;;;;5045498;28;20029;-79
2021/10/11 10:28:03;;;;;;;13.80;4.50;;;15.60;70.50;;;;;;5046002;28;20458;-80
2021/10/11 10:30:29;;;;;;;9.35;4.60;;;15.60;70.50;;;;;;5045803;28;20759;-80
2021/10/11 10:33:02;;;;;;;;;;;15.60;69.80;;;;;;5046004;28;20048;-80
2021/10/11 10:35:31;;;;;;;8.85;4.22;;;15.60;69.20;;;;;;5048846;28;19916;-79
2021/10/11 10:37:58;;;;;;;16.40;6.47;;;15.50;68.80;;;;;;5049440;28;20424;-79
2021/10/11 10:40:29;;;;;;;11.55;5.22;;;15.50;68.40;;;;;;5048850;28;20557;-80
2021/10/11 10:43:09;;;;;;;10.85;4.78;;;15.40;71.30;;;;;;5049493;28;20044;-80
2021/10/11 10:45:36;;;;;;;10.55;4.47;;;15.40;72.50;;;;;;5049565;28;20021;-81
2021/10/11 10:48:14;;;;;;;17.48;4.85;;;15.40;71.50;;;;;;5049428;28;20021;-79
2021/10/11 10:50:40;;;;;;;11.48;4.15;;;15.40;72.10;;;;;;5049515;28;20506;-80
2021/10/11 10:53:06;;;;;;;;;;;15.40;72.50;;;;;;5047755;28;20057;-79
2021/10/11 10:55:35;;;;;;;9.00;4.13;;;15.40;73.40;;;;;;5049412;28;20391;-80
2021/10/11 10:58:05;;;;;;;11.18;4.25;;;15.40;73.10;;;;;;5048728;28;20183;-80
2021/10/11 11:00:32;;;;;;;9.65;4.07;;;15.40;73.70;;;;;;5048463;28;20031;-80
2021/10/11 11:02:58;;;;;;;11.98;4.22;;;15.40;74.50;;;;;;5047626;28;20031;-80
2021/10/11 11:05:25;;;;;;;;;;;15.40;74.70;;;;;;5049627;28;20033;-80
2021/10/11 11:07:54;;;;;;;9.85;5.22;;;15.30;75.80;;;;;;5047209;28;20392;-80
2021/10/11 11:10:30;;;;;;;9.68;5.00;;;15.30;75.70;;;;;;5048620;28;20401;-78
2021/10/11 11:12:59;;;;;;;11.63;5.10;;;15.20;75.40;;;;;;5049127;28;20044;-80
2021/10/11 11:15:36;;;;;;;10.00;5.28;;;15.20;76.80;;;;;;5047628;28;20029;-80
2021/10/11 11:18:04;;;;;;;9.98;4.60;;;15.30;79.30;;;;;;5047611;28;20421;-79
2021/10/11 11:20:33;;;;;;;11.02;4.75;;;15.20;80.70;;;;;;5047348;28;20105;-81
2021/10/11 11:23:13;;;;;;;13.63;5.20;;;15.30;80.40;;;;;;5047340;28;20032;-80
2021/10/11 11:25:41;;;;;;;10.18;5.25;;;15.30;78.20;;;;;;5048684;28;20453;-79
2021/10/11 11:28:09;;;;;;;9.93;4.85;;;15.40;78.30;;;;;;5048456;28;20552;-78
2021/10/11 11:30:36;;;;;;;12.27;6.20;;;15.30;78.60;;;;;;5048538;28;20481;-79
2021/10/11 11:33:03;;;;;;;12.60;5.93;;;15.40;79.20;;;;;;5046857;28;20072;-79
2021/10/11 11:35:49;;;;;;;14.10;5.88;;;15.40;80.30;;;;;;5047085;28;20033;-79
2021/10/11 11:38:19;;;;;;;13.25;5.78;;;15.40;83.60;;;;;;5050555;28;20538;-79
2021/10/11 11:40:59;;;;;;;10.75;5.47;;;15.30;83.70;;;;;;5048451;28;20027;-80
2021/10/11 11:43:28;;;;;;;10.23;5.10;;;15.30;82.20;;;;;;5048064;28;20099;-79
2021/10/11 11:45:56;;;;;;;10.32;5.28;;;15.30;81.70;;;;;;5045898;28;20385;-79
2021/10/11 11:48:27;;;;;;;8.52;4.68;;;15.40;81.70;;;;;;5047883;28;20263;-80
2021/10/11 11:50:55;;;;;;;14.90;5.90;;;15.40;78.80;;;;;;5045964;28;20025;-79
2021/10/11 11:53:23;;;;;;;8.55;5.15;;;15.40;79.00;;;;;;5046374;28;20106;-79
2021/10/11 11:55:56;;;;;;;11.18;5.55;;;15.50;79.30;;;;;;5047844;28;20111;-80
2021/10/11 11:58:26;;;;;;;12.65;5.43;;;15.60;80.50;;;;;;5047748;28;20033;-80
2021/10/11 12:00:55;;;;;;;12.70;5.40;;;15.60;80.40;;;;;;5047720;28;20033;-78
2021/10/11 12:03:22;;;;;;;21.88;7.75;;;15.70;80.00;;;;;;5047960;28;20029;-79
2021/10/11 12:05:51;;;;;;;22.60;8.77;;;15.80;80.20;;;;;;5046137;28;20032;-80
2021/10/11 12:08:17;;;;;;;24.52;8.48;;;15.80;81.40;;;;;;5047759;28;20021;-80
2021/10/11 12:10:54;;;;;;;15.00;6.30;;;15.90;81.60;;;;;;5047425;28;20064;-79
2021/10/11 12:13:20;;;;;;;9.48;5.18;;;16.10;77.60;;;;;;5047370;28;20029;-80
2021/10/11 12:15:45;;;;;;;;;;;16.00;76.80;;;;;;5046634;28;20068;-80
2021/10/11 12:18:11;;;;;;;13.80;5.88;;;15.90;78.00;;;;;;5047351;28;19923;-80
2021/10/11 12:20:50;;;;;;;10.30;5.25;;;15.80;78.70;;;;;;5047144;28;20025;-79
2021/10/11 12:23:17;;;;;;;16.23;4.93;;;15.90;74.30;;;;;;5047193;28;20086;-79
2021/10/11 12:25:44;;;;;;;10.35;4.93;;;15.80;72.70;;;;;;5046056;28;20107;-80
2021/10/11 12:28:18;;;;;;;13.27;4.85;;;15.90;73.50;;;;;;5047326;28;20298;-80
2021/10/11 12:30:46;;;;;;;10.68;4.93;;;15.90;73.00;;;;;;5047246;28;20021;-79
2021/10/11 12:33:14;;;;;;;15.07;5.03;;;15.90;75.20;;;;;;5046075;28;20162;-78
2021/10/11 12:35:41;;;;;;;10.45;5.15;;;16.10;72.70;;;;;;5045523;28;20032;-78
2021/10/11 12:38:10;;;;;;;13.45;5.00;;;16.10;71.80;;;;;;5047095;28;20045;-79
2021/10/11 12:40:38;;;;;;;17.75;5.60;;;16.10;72.50;;;;;;5045504;28;20078;-78
2021/10/11 12:43:18;;;;;;;13.60;5.60;;;16.00;71.50;;;;;;5047223;28;20033;-80
2021/10/11 12:46:07;;;;;;;14.82;5.10;;;16.00;70.90;;;;;;5045925;28;20025;-79
2021/10/11 12:48:33;;;;;;;10.07;5.13;;;15.90;71.80;;;;;;5047273;28;20028;-80
2021/10/11 12:51:00;;;;;;;12.27;4.82;;;15.90;71.80;;;;;;5046713;28;20025;-79
2021/10/11 12:53:31;;;;;;;14.77;6.00;;;16.00;72.50;;;;;;5045488;28;20815;-80
2021/10/11 12:55:59;;;;;;;11.02;5.25;;;16.00;73.80;;;;;;5047012;28;20056;-80
2021/10/11 12:58:26;;;;;;;11.02;4.97;;;16.10;73.80;;;;;;5045202;28;20124;-79
2021/10/11 13:00:53;;;;;;;14.27;4.50;;;16.10;74.00;;;;;;5046703;28;20508;-80